This is the latest recevied weather packets stored in our database for station/object IU1INZ-13. If no packets are shown the sender has not sent any weather packets the latest 10 day(s).
| Time | Temp. | Humidity | Pressure | Rain* | Wind** | Luminosity | Snow |
|---|---|---|---|---|---|---|---|
| 1777234559 | 16.67° C | 71% | 1017.9 hPa | 0 mm | - | - | - |
| 1777233635 | 17.78° C | 68% | 1017.9 hPa | 0 mm | - | - | - |
| 1777232734 | 18.33° C | 65% | 1017.8 hPa | 0 mm | - | - | - |
| 1777231837 | 18.89° C | 62% | 1017.6 hPa | 0 mm | - | - | - |
| 1777230933 | 20° C | 59% | 1017.4 hPa | 0 mm | - | - | - |
| 1777230032 | 20.56° C | 57% | 1017.2 hPa | 0 mm | - | - | - |
| 1777229134 | 22.22° C | 51% | 1017.2 hPa | 0 mm | - | - | - |
| 1777228235 | 22.78° C | 49% | 1017.1 hPa | 0 mm | - | - | - |
| 1777227335 | 23.89° C | 47% | 1016.8 hPa | 0 mm | - | - | - |
| 1777226435 | 24.44° C | 44% | 1016.7 hPa | 0 mm | - | - | - |
| 1777225547 | 25° C | 44% | 1016.6 hPa | 0 mm | - | - | - |
| 1777224636 | 25.56° C | 43% | 1016.4 hPa | 0 mm | - | - | - |
| 1777223733 | 25° C | 43% | 1016.4 hPa | 0 mm | - | - | - |
| 1777222834 | 25° C | 45% | 1016.4 hPa | 0 mm | - | - | - |
| 1777221936 | 25° C | 43% | 1016.5 hPa | 0 mm | - | - | - |
| 1777221035 | 25° C | 44% | 1016.4 hPa | 0 mm | - | - | - |
| 1777220141 | 25° C | 46% | 1016.7 hPa | 0 mm | - | - | - |
| 1777219233 | 25° C | 49% | 1016.6 hPa | 0 mm | - | - | - |
| 1777218341 | 25° C | 47% | 1016.6 hPa | 0 mm | - | - | - |
| 1777217431 | 25.56° C | 44% | 1016.6 hPa | 0 mm | - | - | - |
| 1777216533 | 25.56° C | 45% | 1016.6 hPa | 0 mm | - | - | - |
| 1777215636 | 25° C | 44% | 1016.6 hPa | 0 mm | - | - | - |
| 1777214736 | 25.56° C | 43% | 1016.6 hPa | 0 mm | - | - | - |
| 1777213832 | 25.56° C | 45% | 1016.8 hPa | 0 mm | - | - | - |
| 1777212939 | 25.56° C | 43% | 1016.9 hPa | 0 mm | - | - | - |
* Rain latest hour (hover to see other rain measurements)
** Current wind speed in m/s (hover to see current wind gust speed)